createdAt,value
2019-05-23T00:00:34.211Z,1007.88
2019-05-23T00:01:34.083Z,1007.91
2019-05-23T00:02:34.131Z,1007.96
2019-05-23T00:03:34.137Z,1007.96
2019-05-23T00:04:34.086Z,1007.96
2019-05-23T00:05:34.061Z,1007.97
2019-05-23T00:06:42.875Z,1007.96
2019-05-23T00:08:38.742Z,1007.94
2019-05-23T00:09:38.550Z,1007.93
2019-05-23T00:10:38.558Z,1007.98
2019-05-23T00:11:40.286Z,1007.92
2019-05-23T00:12:38.539Z,1007.92
2019-05-23T00:13:38.537Z,1007.95
2019-05-23T00:14:38.545Z,1007.97
2019-05-23T00:15:38.557Z,1007.93
2019-05-23T00:16:38.531Z,1007.94
2019-05-23T00:17:38.524Z,1007.94
2019-05-23T00:18:38.491Z,1007.95
2019-05-23T00:19:38.519Z,1007.93
2019-05-23T00:20:38.553Z,1007.90
2019-05-23T00:21:38.509Z,1007.90
2019-05-23T00:22:38.544Z,1007.92
2019-05-23T00:23:38.586Z,1007.87
2019-05-23T00:24:38.498Z,1007.84
2019-05-23T00:25:38.491Z,1007.91
2019-05-23T00:26:38.489Z,1007.86
2019-05-23T00:27:38.501Z,1007.89
2019-05-23T00:28:38.481Z,1007.84
2019-05-23T00:29:40.382Z,1007.87
2019-05-23T00:30:38.457Z,1007.84
2019-05-23T00:31:38.556Z,1007.86
2019-05-23T00:32:38.473Z,1007.87
2019-05-23T00:33:38.461Z,1007.85
2019-05-23T00:34:38.460Z,1007.87
2019-05-23T00:35:38.440Z,1007.84
2019-05-23T00:36:38.411Z,1007.86
2019-05-23T00:37:38.432Z,1007.86
2019-05-23T00:38:38.399Z,1007.85
2019-05-23T00:39:38.402Z,1007.84
2019-05-23T00:40:38.499Z,1007.82
2019-05-23T00:41:38.394Z,1007.84
2019-05-23T00:42:38.389Z,1007.85
2019-05-23T00:43:38.416Z,1007.82
2019-05-23T00:44:38.368Z,1007.80
2019-05-23T00:45:47.532Z,1007.84
2019-05-23T00:47:44.073Z,1007.82
2019-05-23T00:48:44.324Z,1007.82
2019-05-23T00:49:44.025Z,1007.82
2019-05-23T00:50:44.022Z,1007.80
2019-05-23T00:51:43.964Z,1007.81
2019-05-23T00:52:43.939Z,1007.79
2019-05-23T00:53:43.975Z,1007.81
2019-05-23T00:54:43.916Z,1007.79
2019-05-23T00:55:43.924Z,1007.78
2019-05-23T00:56:43.850Z,1007.79
2019-05-23T00:57:43.978Z,1007.79
2019-05-23T00:58:43.899Z,1007.77
2019-05-23T00:59:43.946Z,1007.78
2019-05-23T01:00:43.912Z,1007.76
2019-05-23T01:01:43.910Z,1007.78
2019-05-23T01:02:43.882Z,1007.74
2019-05-23T01:03:43.843Z,1007.76
2019-05-23T01:04:43.801Z,1007.75
2019-05-23T01:05:43.889Z,1007.76
2019-05-23T01:06:43.805Z,1007.75
2019-05-23T01:07:43.830Z,1007.73
2019-05-23T01:08:43.797Z,1007.76
2019-05-23T01:09:43.825Z,1007.73
2019-05-23T01:10:53.610Z,1007.69
2019-05-23T01:12:49.620Z,1007.67
2019-05-23T01:13:49.264Z,1007.63
2019-05-23T01:14:49.273Z,1007.66
2019-05-23T01:15:49.347Z,1007.66
2019-05-23T01:16:49.283Z,1007.68
2019-05-23T01:17:49.320Z,1007.66
2019-05-23T01:18:49.286Z,1007.67
2019-05-23T01:19:49.250Z,1007.63
2019-05-23T01:20:49.257Z,1007.69
2019-05-23T01:21:49.224Z,1007.62
2019-05-23T01:22:49.220Z,1007.64
2019-05-23T01:23:49.189Z,1007.68
2019-05-23T01:24:49.214Z,1007.62
2019-05-23T01:25:49.217Z,1007.64
2019-05-23T01:26:49.288Z,1007.62
2019-05-23T01:27:49.236Z,1007.59
2019-05-23T01:28:49.243Z,1007.60
2019-05-23T01:29:50.370Z,1007.56
2019-05-23T01:30:49.193Z,1007.57
2019-05-23T01:31:49.199Z,1007.58
2019-05-23T01:32:49.160Z,1007.57
2019-05-23T01:33:49.144Z,1007.56
2019-05-23T01:34:49.177Z,1007.57
2019-05-23T01:35:49.185Z,1007.60
2019-05-23T01:36:49.186Z,1007.63
2019-05-23T01:37:49.183Z,1007.60
2019-05-23T01:38:49.142Z,1007.57
2019-05-23T01:39:49.177Z,1007.63
2019-05-23T01:40:49.096Z,1007.59
2019-05-23T01:41:49.163Z,1007.60
2019-05-23T01:42:49.106Z,1007.60
2019-05-23T01:43:49.145Z,1007.62
2019-05-23T01:44:49.064Z,1007.58
2019-05-23T01:45:49.082Z,1007.59
2019-05-23T01:48:37.546Z,1007.59
2019-05-23T01:49:32.395Z,1007.58
2019-05-23T01:50:32.343Z,1007.61
2019-05-23T01:51:32.345Z,1007.61
2019-05-23T01:52:32.256Z,1007.60
2019-05-23T01:53:32.287Z,1007.64
2019-05-23T01:54:32.289Z,1007.62
2019-05-23T01:55:32.292Z,1007.63
2019-05-23T01:56:32.251Z,1007.60
2019-05-23T01:57:32.316Z,1007.65
2019-05-23T01:58:32.297Z,1007.66
2019-05-23T01:59:32.266Z,1007.64
2019-05-23T02:00:32.218Z,1007.62
2019-05-23T02:01:32.185Z,1007.60
2019-05-23T02:02:32.203Z,1007.63
2019-05-23T02:03:32.234Z,1007.62
2019-05-23T02:04:32.287Z,1007.62
2019-05-23T02:05:32.233Z,1007.58
2019-05-23T02:06:32.175Z,1007.61
2019-05-23T02:07:32.189Z,1007.61
2019-05-23T02:08:32.279Z,1007.64
2019-05-23T02:09:32.204Z,1007.60
2019-05-23T02:10:32.197Z,1007.63
2019-05-23T02:11:32.208Z,1007.60
2019-05-23T02:12:32.188Z,1007.61
2019-05-23T02:13:32.116Z,1007.62
2019-05-23T02:14:32.109Z,1007.60
2019-05-23T02:15:32.223Z,1007.65
2019-05-23T02:16:32.105Z,1007.63
2019-05-23T02:17:32.141Z,1007.63
2019-05-23T02:18:32.116Z,1007.61
2019-05-23T02:19:32.191Z,1007.59
2019-05-23T02:20:32.139Z,1007.57
2019-05-23T02:21:32.133Z,1007.59
2019-05-23T02:22:32.067Z,1007.62
2019-05-23T02:23:32.328Z,1007.60
2019-05-23T02:24:32.077Z,1007.57
2019-05-23T02:25:32.055Z,1007.63
2019-05-23T02:26:39.654Z,1007.60
2019-05-23T02:27:32.033Z,1007.60
2019-05-23T02:28:32.066Z,1007.58
2019-05-23T02:29:32.168Z,1007.58
2019-05-23T02:30:35.816Z,1007.57
2019-05-23T02:31:32.062Z,1007.56
2019-05-23T02:32:32.018Z,1007.58
2019-05-23T02:33:32.033Z,1007.57
2019-05-23T02:34:32.013Z,1007.56
2019-05-23T02:35:32.011Z,1007.51
2019-05-23T02:36:32.003Z,1007.52
2019-05-23T02:37:31.986Z,1007.54
2019-05-23T02:40:15.032Z,1007.53
2019-05-23T02:41:04.983Z,1007.50
2019-05-23T02:42:04.958Z,1007.55
2019-05-23T02:43:04.945Z,1007.54
2019-05-23T02:44:04.934Z,1007.57
2019-05-23T02:45:04.971Z,1007.52
2019-05-23T02:46:04.935Z,1007.52
2019-05-23T02:47:04.932Z,1007.52
2019-05-23T02:48:04.940Z,1007.56
2019-05-23T02:49:04.926Z,1007.54
2019-05-23T02:50:04.900Z,1007.50
2019-05-23T02:51:04.898Z,1007.51
2019-05-23T02:52:04.911Z,1007.46
2019-05-23T02:53:04.913Z,1007.46
2019-05-23T02:54:04.869Z,1007.48
2019-05-23T02:55:04.936Z,1007.48
2019-05-23T02:56:04.902Z,1007.48
2019-05-23T02:57:04.867Z,1007.45
2019-05-23T02:58:04.840Z,1007.46
2019-05-23T02:59:04.836Z,1007.47
2019-05-23T03:00:04.878Z,1007.51
2019-05-23T03:01:04.848Z,1007.51
2019-05-23T03:02:04.857Z,1007.48
2019-05-23T03:03:04.841Z,1007.46
2019-05-23T03:04:04.853Z,1007.47
2019-05-23T03:05:04.893Z,1007.50
2019-05-23T03:06:04.839Z,1007.46
2019-05-23T03:07:04.836Z,1007.47
2019-05-23T03:08:04.818Z,1007.49
2019-05-23T03:09:04.822Z,1007.47
2019-05-23T03:10:04.855Z,1007.52
2019-05-23T03:11:16.843Z,1007.49
2019-05-23T03:12:04.839Z,1007.48
2019-05-23T03:13:04.915Z,1007.49
2019-05-23T03:14:04.818Z,1007.49
2019-05-23T03:15:04.815Z,1007.48
2019-05-23T03:16:04.745Z,1007.47
2019-05-23T03:17:04.730Z,1007.48
2019-05-23T03:18:04.747Z,1007.46
2019-05-23T03:19:04.718Z,1007.47
2019-05-23T03:20:04.719Z,1007.48
2019-05-23T03:21:04.760Z,1007.49
2019-05-23T03:22:04.698Z,1007.49
2019-05-23T03:23:04.697Z,1007.53
2019-05-23T03:24:04.767Z,1007.52
2019-05-23T03:25:04.705Z,1007.53
2019-05-23T03:26:04.670Z,1007.50
2019-05-23T03:27:04.681Z,1007.55
2019-05-23T03:28:04.683Z,1007.53
2019-05-23T03:29:04.683Z,1007.56
2019-05-23T03:30:04.769Z,1007.54
2019-05-23T03:31:28.782Z,1007.54
2019-05-23T03:33:09.225Z,1007.55
2019-05-23T03:34:09.125Z,1007.58
2019-05-23T03:35:09.138Z,1007.51
2019-05-23T03:36:17.805Z,1007.55
2019-05-23T03:37:09.158Z,1007.55
2019-05-23T03:38:09.149Z,1007.54
2019-05-23T03:39:09.180Z,1007.57
2019-05-23T03:40:17.876Z,1007.53
2019-05-23T03:42:13.681Z,1007.58
2019-05-23T03:43:13.687Z,1007.57
2019-05-23T03:44:13.592Z,1007.56
2019-05-23T03:45:13.616Z,1007.57
2019-05-23T03:46:13.630Z,1007.58
2019-05-23T03:47:13.593Z,1007.59
2019-05-23T03:48:13.586Z,1007.59
2019-05-23T03:49:13.567Z,1007.58
2019-05-23T03:50:13.542Z,1007.57
2019-05-23T03:51:13.578Z,1007.56
2019-05-23T03:52:13.527Z,1007.55
2019-05-23T03:53:13.537Z,1007.56
2019-05-23T03:54:13.513Z,1007.55
2019-05-23T03:55:13.583Z,1007.56
2019-05-23T03:56:13.548Z,1007.53
2019-05-23T03:57:13.524Z,1007.54
2019-05-23T03:58:13.508Z,1007.50
2019-05-23T03:59:13.495Z,1007.52
2019-05-23T04:00:13.509Z,1007.55
2019-05-23T04:01:13.488Z,1007.55
2019-05-23T04:02:13.620Z,1007.54
2019-05-23T04:03:13.497Z,1007.53
2019-05-23T04:04:13.514Z,1007.51
2019-05-23T04:05:13.442Z,1007.51
2019-05-23T04:06:13.486Z,1007.52
2019-05-23T04:07:13.472Z,1007.51
2019-05-23T04:08:13.533Z,1007.52
2019-05-23T04:23:59.538Z,1007.61
2019-05-23T04:25:02.161Z,1007.57
2019-05-23T04:26:00.061Z,1007.55
2019-05-23T04:26:59.373Z,1007.55
2019-05-23T04:27:59.332Z,1007.55
2019-05-23T04:28:59.327Z,1007.55
2019-05-23T04:29:59.344Z,1007.57
2019-05-23T04:30:59.327Z,1007.58
2019-05-23T04:32:07.736Z,1007.56
2019-05-23T04:32:59.300Z,1007.60
2019-05-23T04:33:59.317Z,1007.59
2019-05-23T04:35:08.219Z,1007.59
2019-05-23T04:37:03.925Z,1007.60
2019-05-23T04:38:03.792Z,1007.64
2019-05-23T04:39:03.836Z,1007.67
2019-05-23T04:40:04.076Z,1007.63
2019-05-23T04:41:03.760Z,1007.68
2019-05-23T04:42:03.763Z,1007.62
2019-05-23T04:43:03.780Z,1007.68
2019-05-23T04:44:03.769Z,1007.66
2019-05-23T04:45:03.791Z,1007.65
2019-05-23T04:46:03.750Z,1007.68
2019-05-23T04:47:03.776Z,1007.68
2019-05-23T04:48:03.759Z,1007.67
2019-05-23T04:49:03.751Z,1007.64
2019-05-23T04:50:03.831Z,1007.65
2019-05-23T04:51:03.724Z,1007.67
2019-05-23T04:52:03.733Z,1007.67
2019-05-23T04:53:03.788Z,1007.69
2019-05-23T04:54:03.737Z,1007.72
2019-05-23T04:55:03.718Z,1007.72
2019-05-23T04:56:03.757Z,1007.73
2019-05-23T04:57:03.739Z,1007.78
2019-05-23T04:58:04.849Z,1007.79
2019-05-23T04:59:03.763Z,1007.77
2019-05-23T05:00:12.533Z,1007.76
2019-05-23T05:02:26.081Z,1007.78
2019-05-23T05:03:08.320Z,1007.85
2019-05-23T05:04:08.278Z,1007.81
2019-05-23T05:05:08.323Z,1007.84
2019-05-23T05:06:17.078Z,1007.90
2019-05-23T05:08:21.973Z,1007.85
2019-05-23T05:09:12.778Z,1007.86
2019-05-23T05:10:12.792Z,1007.92
2019-05-23T05:11:12.930Z,1007.87
2019-05-23T05:12:12.769Z,1007.93
2019-05-23T05:13:12.724Z,1007.92
2019-05-23T05:14:12.811Z,1007.92
2019-05-23T05:15:12.793Z,1007.86
2019-05-23T05:16:12.795Z,1007.86
2019-05-23T05:17:12.813Z,1007.88
2019-05-23T05:18:13.021Z,1007.91
2019-05-23T05:19:12.766Z,1007.92
2019-05-23T05:20:12.809Z,1007.92
2019-05-23T05:21:12.790Z,1007.92
2019-05-23T05:22:12.778Z,1007.95
2019-05-23T05:23:12.780Z,1007.95
2019-05-23T05:24:12.815Z,1007.95
2019-05-23T05:25:12.841Z,1007.95
2019-05-23T05:26:12.820Z,1008.00
2019-05-23T05:27:12.833Z,1007.98
2019-05-23T05:28:12.877Z,1007.96
2019-05-23T05:29:12.836Z,1007.97
2019-05-23T05:30:12.830Z,1008.00
2019-05-23T05:31:12.867Z,1007.99
2019-05-23T05:32:12.869Z,1007.96
2019-05-23T05:33:12.969Z,1007.98
2019-05-23T05:34:12.847Z,1007.96
2019-05-23T05:35:12.849Z,1007.99
2019-05-23T05:36:22.618Z,1007.95
2019-05-23T05:38:17.473Z,1008.01
2019-05-23T05:39:17.517Z,1008.08
2019-05-23T05:40:26.191Z,1008.07
2019-05-23T05:42:22.020Z,1008.04
2019-05-23T05:43:22.001Z,1008.08
2019-05-23T05:44:22.305Z,1008.04
2019-05-23T05:45:22.041Z,1008.04
2019-05-23T05:46:22.030Z,1008.08
2019-05-23T05:47:22.030Z,1008.01
2019-05-23T05:48:22.097Z,1007.91
2019-05-23T05:49:22.051Z,1007.85
2019-05-23T05:50:22.083Z,1007.91
2019-05-23T05:51:22.122Z,1008.03
2019-05-23T05:52:22.070Z,1008.04
2019-05-23T05:53:22.117Z,1008.04
2019-05-23T05:54:22.134Z,1008.16
2019-05-23T05:55:22.104Z,1008.26
2019-05-23T05:56:22.192Z,1008.29
2019-05-23T05:57:22.168Z,1008.38
2019-05-23T05:58:22.439Z,1008.43
2019-05-23T05:59:22.146Z,1008.56
2019-05-23T06:00:22.193Z,1008.46
2019-05-23T06:01:33.330Z,1008.56
2019-05-23T06:02:22.208Z,1008.52
2019-05-23T06:03:22.214Z,1008.27
2019-05-23T06:04:22.228Z,1008.28
2019-05-23T06:05:22.231Z,1008.34
2019-05-23T06:06:22.264Z,1008.80
2019-05-23T06:07:22.323Z,1008.95
2019-05-23T06:08:22.382Z,1008.75
2019-05-23T06:09:30.950Z,1008.43
2019-05-23T06:11:26.809Z,1008.32
2019-05-23T06:12:26.813Z,1008.14
2019-05-23T06:13:26.816Z,1008.06
2019-05-23T06:14:26.883Z,1008.01
2019-05-23T06:15:26.905Z,1008.02
2019-05-23T06:16:26.808Z,1008.01
2019-05-23T06:17:26.820Z,1007.97
2019-05-23T06:18:26.859Z,1007.95
2019-05-23T06:19:26.857Z,1007.95
2019-05-23T06:20:26.866Z,1007.94
2019-05-23T06:21:26.879Z,1008.01
2019-05-23T06:22:26.895Z,1007.96
2019-05-23T06:23:26.886Z,1007.96
2019-05-23T06:24:41.622Z,1007.95
2019-05-23T06:25:26.895Z,1007.98
2019-05-23T06:26:26.867Z,1007.96
2019-05-23T06:27:26.891Z,1007.92
2019-05-23T06:28:26.875Z,1007.91
2019-05-23T06:29:26.913Z,1007.90
2019-05-23T06:30:26.902Z,1007.91
2019-05-23T06:31:26.907Z,1007.88
2019-05-23T06:32:26.909Z,1007.86
2019-05-23T06:33:26.922Z,1007.91
2019-05-23T06:34:26.895Z,1007.86
2019-05-23T06:35:27.026Z,1007.84
2019-05-23T06:36:26.892Z,1007.87
2019-05-23T06:37:36.261Z,1007.87
2019-05-23T06:39:31.942Z,1007.81
2019-05-23T06:40:31.532Z,1007.81
2019-05-23T06:41:31.499Z,1007.83
2019-05-23T06:42:31.795Z,1007.85
2019-05-23T06:43:31.494Z,1007.87
2019-05-23T06:44:31.661Z,1007.88
2019-05-23T06:45:31.499Z,1007.89
2019-05-23T06:46:31.674Z,1007.88
2019-05-23T06:47:31.551Z,1007.88
2019-05-23T06:48:31.528Z,1007.87
2019-05-23T06:49:31.505Z,1007.86
2019-05-23T06:50:31.510Z,1007.86
2019-05-23T06:51:31.532Z,1007.85
2019-05-23T06:52:31.550Z,1007.84
2019-05-23T06:53:31.548Z,1007.85
2019-05-23T06:54:31.569Z,1007.81
2019-05-23T06:55:31.573Z,1007.81
2019-05-23T06:56:31.846Z,1007.83
2019-05-23T06:57:31.560Z,1007.82
2019-05-23T06:58:31.565Z,1007.82
2019-05-23T06:59:31.541Z,1007.81
2019-05-23T07:00:31.732Z,1007.82
2019-05-23T07:01:31.556Z,1007.79
2019-05-23T07:02:32.317Z,1007.77
2019-05-23T07:03:42.705Z,1007.78
2019-05-23T07:04:31.571Z,1007.78
2019-05-23T07:05:31.542Z,1007.80
2019-05-23T07:06:31.550Z,1007.81
2019-05-23T07:07:31.527Z,1007.83
2019-05-23T07:08:31.552Z,1007.84
2019-05-23T07:09:31.583Z,1007.85
2019-05-23T07:10:31.555Z,1007.87
2019-05-23T07:11:31.539Z,1007.84
2019-05-23T07:12:31.662Z,1007.89
2019-05-23T07:13:31.585Z,1007.90
2019-05-23T07:14:31.573Z,1007.89
2019-05-23T07:15:31.623Z,1007.94
2019-05-23T07:16:31.612Z,1007.90
2019-05-23T07:17:31.855Z,1007.92
2019-05-23T07:18:31.547Z,1007.91
2019-05-23T07:19:31.553Z,1007.89
2019-05-23T07:20:31.581Z,1007.91
2019-05-23T07:21:31.537Z,1007.94
2019-05-23T07:22:31.568Z,1007.92
2019-05-23T07:23:31.592Z,1007.92
2019-05-23T07:24:31.553Z,1007.92
2019-05-23T07:25:31.617Z,1007.91
2019-05-23T07:26:31.593Z,1007.93
2019-05-23T07:27:31.589Z,1007.91
2019-05-23T07:28:41.328Z,1007.87
2019-05-23T07:30:36.220Z,1007.92
2019-05-23T07:31:36.249Z,1007.94
2019-05-23T07:32:36.184Z,1007.93
2019-05-23T07:33:36.091Z,1007.94
2019-05-23T07:34:45.866Z,1007.97
2019-05-23T07:36:41.010Z,1007.91
2019-05-23T07:37:41.027Z,1007.92
2019-05-23T07:38:40.868Z,1007.95
2019-05-23T07:39:40.840Z,1007.92
2019-05-23T07:40:40.975Z,1007.92
2019-05-23T07:41:40.804Z,1007.92
2019-05-23T07:42:40.796Z,1007.93
2019-05-23T07:43:40.818Z,1007.92
2019-05-23T07:44:48.371Z,1007.89
2019-05-23T07:45:40.838Z,1007.91
2019-05-23T07:46:40.802Z,1007.91
2019-05-23T07:47:40.833Z,1007.92
2019-05-23T07:48:40.813Z,1007.91
2019-05-23T07:49:40.820Z,1007.91
2019-05-23T07:50:40.803Z,1007.88
2019-05-23T07:51:40.871Z,1007.89
2019-05-23T07:52:40.820Z,1007.88
2019-05-23T07:53:43.749Z,1007.91
2019-05-23T07:54:40.886Z,1007.86
2019-05-23T07:55:40.890Z,1007.86
2019-05-23T07:56:50.713Z,1007.87
2019-05-23T07:58:34.585Z,1007.87
2019-05-23T07:59:34.496Z,1007.82
2019-05-23T08:00:34.477Z,1007.83
2019-05-23T08:01:34.517Z,1007.85
2019-05-23T08:02:43.226Z,1007.80
2019-05-23T08:04:48.962Z,1007.80
2019-05-23T08:05:38.983Z,1007.79
2019-05-23T08:06:38.944Z,1007.82
2019-05-23T08:07:47.949Z,1007.78
2019-05-23T08:09:44.489Z,1007.78
2019-05-23T08:10:53.138Z,1007.85
2019-05-23T08:12:49.471Z,1007.79
2019-05-23T08:13:48.938Z,1007.78
2019-05-23T08:14:48.925Z,1007.77
2019-05-23T08:15:48.933Z,1007.80
2019-05-23T08:16:48.956Z,1007.82
2019-05-23T08:17:48.950Z,1007.82
2019-05-23T08:18:49.043Z,1007.80
2019-05-23T08:19:50.411Z,1007.80
2019-05-23T08:20:48.939Z,1007.84
2019-05-23T08:21:48.941Z,1007.81
2019-05-23T08:22:48.937Z,1007.83
2019-05-23T08:23:48.894Z,1007.88
2019-05-23T08:24:51.264Z,1007.83
2019-05-23T08:25:48.993Z,1007.88
2019-05-23T08:26:48.955Z,1007.83
2019-05-23T08:27:48.932Z,1007.82
2019-05-23T08:29:12.459Z,1007.82
2019-05-23T08:29:48.926Z,1007.80
2019-05-23T08:30:48.975Z,1007.79
2019-05-23T08:31:48.999Z,1007.80
2019-05-23T08:32:48.934Z,1007.77
2019-05-23T08:33:48.927Z,1007.77
2019-05-23T08:34:48.923Z,1007.78
2019-05-23T08:35:48.972Z,1007.78
2019-05-23T08:36:48.946Z,1007.79
2019-05-23T08:37:48.899Z,1007.78
2019-05-23T08:38:58.631Z,1007.74
2019-05-23T08:40:53.464Z,1007.74
2019-05-23T08:41:53.417Z,1007.71
2019-05-23T08:42:53.594Z,1007.68
2019-05-23T08:43:53.501Z,1007.68
2019-05-23T08:44:53.523Z,1007.68
2019-05-23T08:45:54.020Z,1007.69
2019-05-23T08:46:53.420Z,1007.66
2019-05-23T08:47:53.457Z,1007.61
2019-05-23T08:48:53.443Z,1007.57
2019-05-23T08:49:53.420Z,1007.61
2019-05-23T08:50:53.399Z,1007.56
2019-05-23T08:51:53.430Z,1007.55
2019-05-23T08:52:53.874Z,1007.53
2019-05-23T08:53:53.428Z,1007.57
2019-05-23T08:54:53.500Z,1007.59
2019-05-23T08:55:53.409Z,1007.55
2019-05-23T08:56:53.425Z,1007.57
2019-05-23T08:57:53.483Z,1007.53
2019-05-23T08:59:02.282Z,1007.55
2019-05-23T09:01:08.087Z,1007.55
2019-05-23T09:02:06.944Z,1007.56
2019-05-23T09:04:02.944Z,1007.55
2019-05-23T09:05:06.026Z,1007.60
2019-05-23T09:06:02.576Z,1007.51
2019-05-23T09:07:02.816Z,1007.58
2019-05-23T09:08:02.511Z,1007.55
2019-05-23T09:09:02.469Z,1007.56
2019-05-23T09:10:02.487Z,1007.55
2019-05-23T09:11:02.502Z,1007.52
2019-05-23T09:12:02.446Z,1007.57
2019-05-23T09:13:02.458Z,1007.56
2019-05-23T09:14:02.583Z,1007.50
2019-05-23T09:15:02.545Z,1007.53
2019-05-23T09:16:02.435Z,1007.50
2019-05-23T09:17:02.459Z,1007.50
2019-05-23T09:18:02.425Z,1007.51
2019-05-23T09:19:02.433Z,1007.45
2019-05-23T09:20:02.555Z,1007.50
2019-05-23T09:21:02.518Z,1007.48
2019-05-23T09:22:02.437Z,1007.42
2019-05-23T09:23:02.447Z,1007.44
2019-05-23T09:24:02.453Z,1007.47
2019-05-23T09:25:02.467Z,1007.43
2019-05-23T09:26:02.481Z,1007.44
2019-05-23T09:27:02.471Z,1007.38
2019-05-23T09:28:02.513Z,1007.41
2019-05-23T09:29:02.507Z,1007.44
2019-05-23T09:30:02.488Z,1007.41
2019-05-23T09:31:02.569Z,1007.40
2019-05-23T09:32:04.044Z,1007.39
2019-05-23T09:33:03.145Z,1007.42
2019-05-23T09:34:02.500Z,1007.39
2019-05-23T09:35:19.608Z,1007.36
2019-05-23T09:36:02.449Z,1007.37
2019-05-23T09:37:02.448Z,1007.38
2019-05-23T09:38:02.443Z,1007.38
2019-05-23T09:39:02.481Z,1007.38
2019-05-23T09:40:03.453Z,1007.34
2019-05-23T09:41:02.661Z,1007.35
2019-05-23T09:42:02.626Z,1007.39
2019-05-23T09:43:02.459Z,1007.40
2019-05-23T09:44:02.465Z,1007.44
2019-05-23T09:45:02.640Z,1007.46
2019-05-23T09:46:03.051Z,1007.42
2019-05-23T09:47:02.548Z,1007.43
2019-05-23T09:48:02.563Z,1007.42
2019-05-23T09:49:02.463Z,1007.39
2019-05-23T09:50:02.470Z,1007.35
2019-05-23T09:51:02.447Z,1007.34
2019-05-23T09:52:02.422Z,1007.30
2019-05-23T09:53:02.459Z,1007.29
2019-05-23T09:54:02.492Z,1007.35
2019-05-23T09:55:02.447Z,1007.30
2019-05-23T09:56:02.508Z,1007.26
2019-05-23T09:57:02.412Z,1007.28
2019-05-23T09:58:11.197Z,1007.31
2019-05-23T10:00:28.925Z,1007.23
2019-05-23T10:01:27.958Z,1007.25
2019-05-23T10:03:32.824Z,1007.22
2019-05-23T10:04:33.492Z,1007.20
2019-05-23T10:06:18.242Z,1007.18
2019-05-23T10:07:18.221Z,1007.21
2019-05-23T10:08:18.143Z,1007.18
2019-05-23T10:09:18.304Z,1007.15
2019-05-23T10:10:18.143Z,1007.16
2019-05-23T10:11:18.151Z,1007.16
2019-05-23T10:12:18.193Z,1007.10
2019-05-23T10:13:18.175Z,1007.16
2019-05-23T10:14:18.172Z,1007.21
2019-05-23T10:15:18.165Z,1007.12
2019-05-23T10:16:18.154Z,1007.13
2019-05-23T10:17:18.137Z,1007.12
2019-05-23T10:18:18.331Z,1007.13
2019-05-23T10:19:18.141Z,1007.13
2019-05-23T10:20:18.168Z,1007.15
2019-05-23T10:21:18.166Z,1007.08
2019-05-23T10:22:27.205Z,1007.07
2019-05-23T10:24:34.169Z,1007.08
2019-05-23T10:25:34.227Z,1007.02
2019-05-23T10:26:34.014Z,1007.01
2019-05-23T10:27:33.992Z,1007.05
2019-05-23T10:28:42.826Z,1007.03
2019-05-23T10:30:48.586Z,1006.98
2019-05-23T10:31:38.590Z,1006.98
2019-05-23T10:32:38.606Z,1007.01
2019-05-23T10:33:47.473Z,1006.90
2019-05-23T10:36:00.544Z,1006.97
2019-05-23T10:36:51.891Z,1006.92
2019-05-23T10:38:48.144Z,1006.86
2019-05-23T10:39:47.736Z,1006.89
2019-05-23T10:40:47.730Z,1006.85
2019-05-23T10:41:47.833Z,1006.88
2019-05-23T10:42:47.748Z,1006.90
2019-05-23T10:43:47.734Z,1006.93
2019-05-23T10:44:47.759Z,1006.83
2019-05-23T10:45:47.732Z,1006.83
2019-05-23T10:46:47.739Z,1006.82
2019-05-23T10:47:47.733Z,1006.82
2019-05-23T10:48:47.754Z,1006.80
2019-05-23T10:49:47.744Z,1006.78
2019-05-23T10:50:47.766Z,1006.82
2019-05-23T10:51:47.714Z,1006.82
2019-05-23T10:52:47.720Z,1006.77
2019-05-23T10:53:47.746Z,1006.78
2019-05-23T10:54:47.784Z,1006.73
2019-05-23T10:55:47.853Z,1006.79
2019-05-23T10:56:47.748Z,1006.76
2019-05-23T10:57:47.717Z,1006.76
2019-05-23T10:58:47.712Z,1006.73
2019-05-23T10:59:47.748Z,1006.76
2019-05-23T11:00:47.740Z,1006.76
2019-05-23T11:01:47.717Z,1006.77
2019-05-23T11:02:47.748Z,1006.70
2019-05-23T11:03:47.735Z,1006.73
2019-05-23T11:04:47.820Z,1006.77
2019-05-23T11:05:47.754Z,1006.77
2019-05-23T11:06:47.753Z,1006.79
2019-05-23T11:07:47.761Z,1006.77
2019-05-23T11:08:47.749Z,1006.73
2019-05-23T11:09:47.737Z,1006.75
2019-05-23T11:10:47.934Z,1006.61
2019-05-23T11:11:47.734Z,1006.75
2019-05-23T11:12:47.724Z,1006.70
2019-05-23T11:13:47.826Z,1006.70
2019-05-23T11:14:47.725Z,1006.64
2019-05-23T11:15:47.740Z,1006.65
2019-05-23T11:16:47.722Z,1006.66
2019-05-23T11:17:47.766Z,1006.68
2019-05-23T11:18:47.787Z,1006.73
2019-05-23T11:19:47.724Z,1006.69
2019-05-23T11:20:47.732Z,1006.68
2019-05-23T11:21:47.731Z,1006.64
2019-05-23T11:22:47.731Z,1006.63
2019-05-23T11:23:47.739Z,1006.60
2019-05-23T11:24:47.738Z,1006.56
2019-05-23T11:25:47.739Z,1006.64
2019-05-23T11:26:47.737Z,1006.64
2019-05-23T11:27:47.745Z,1006.57
2019-05-23T11:28:47.824Z,1006.60
2019-05-23T11:29:47.748Z,1006.60
2019-05-23T11:30:47.743Z,1006.56
2019-05-23T11:31:47.751Z,1006.58
2019-05-23T11:32:47.750Z,1006.58
2019-05-23T11:33:47.750Z,1006.55
2019-05-23T11:34:47.808Z,1006.48
2019-05-23T11:35:47.779Z,1006.54
2019-05-23T11:36:47.757Z,1006.51
2019-05-23T11:37:47.773Z,1006.56
2019-05-23T11:38:47.749Z,1006.55
2019-05-23T11:39:50.039Z,1006.50
2019-05-23T11:40:47.825Z,1006.55
2019-05-23T11:41:47.850Z,1006.47
2019-05-23T11:42:47.852Z,1006.52
2019-05-23T11:43:48.041Z,1006.58
2019-05-23T11:44:47.899Z,1006.55
2019-05-23T11:45:47.783Z,1006.55
2019-05-23T11:46:47.826Z,1006.51
2019-05-23T11:47:47.823Z,1006.49
2019-05-23T11:48:47.847Z,1006.46
2019-05-23T11:49:47.812Z,1006.42
2019-05-23T11:50:47.834Z,1006.37
2019-05-23T11:51:47.839Z,1006.38
2019-05-23T11:52:47.852Z,1006.41
2019-05-23T11:54:05.989Z,1006.41
2019-05-23T11:54:47.800Z,1006.35
2019-05-23T11:55:47.790Z,1006.36
2019-05-23T11:56:47.812Z,1006.29
2019-05-23T11:57:47.862Z,1006.29
2019-05-23T11:58:47.790Z,1006.29
2019-05-23T11:59:47.797Z,1006.29
2019-05-23T12:00:47.783Z,1006.29
2019-05-23T12:01:47.826Z,1006.28
2019-05-23T12:02:47.797Z,1006.26
2019-05-23T12:03:47.803Z,1006.29
2019-05-23T12:04:47.839Z,1006.26
2019-05-23T12:05:57.661Z,1006.29
2019-05-23T12:07:52.522Z,1006.32
2019-05-23T12:08:52.412Z,1006.22
2019-05-23T12:09:52.432Z,1006.25
2019-05-23T12:10:52.467Z,1006.16
2019-05-23T12:11:52.336Z,1006.20
2019-05-23T12:12:52.343Z,1006.19
2019-05-23T12:13:52.317Z,1006.21
2019-05-23T12:14:52.353Z,1006.16
2019-05-23T12:15:52.376Z,1006.13
2019-05-23T12:16:52.338Z,1006.16
2019-05-23T12:17:52.420Z,1006.15
2019-05-23T12:18:52.356Z,1006.11
2019-05-23T12:19:52.397Z,1006.13
2019-05-23T12:20:52.358Z,1006.02
2019-05-23T12:21:52.387Z,1006.06
2019-05-23T12:22:52.387Z,1006.06
2019-05-23T12:23:52.365Z,1006.06
2019-05-23T12:25:18.226Z,1006.02
2019-05-23T12:27:06.930Z,1005.96
2019-05-23T12:28:05.705Z,1005.95
2019-05-23T12:30:01.513Z,1005.93
2019-05-23T12:33:13.703Z,1005.97
2019-05-23T12:34:05.893Z,1005.95
2019-05-23T12:35:10.867Z,1005.93
2019-05-23T12:36:05.894Z,1005.89
2019-05-23T12:37:21.093Z,1005.87
2019-05-23T12:38:05.889Z,1005.83
2019-05-23T12:39:05.901Z,1005.89
2019-05-23T12:40:05.980Z,1005.86
2019-05-23T12:41:05.889Z,1005.84
2019-05-23T12:42:05.901Z,1005.86
2019-05-23T12:43:05.876Z,1005.85
2019-05-23T12:44:05.881Z,1005.84
2019-05-23T12:45:05.886Z,1005.87
2019-05-23T12:46:05.947Z,1005.84
2019-05-23T12:47:05.948Z,1005.79
2019-05-23T12:48:05.900Z,1005.77
2019-05-23T12:49:05.951Z,1005.73
2019-05-23T12:50:05.957Z,1005.74
2019-05-23T12:51:05.934Z,1005.68
2019-05-23T12:52:05.928Z,1005.66
2019-05-23T12:53:05.896Z,1005.70
2019-05-23T12:54:05.974Z,1005.62
2019-05-23T12:55:05.892Z,1005.57
2019-05-23T12:56:15.938Z,1005.61
2019-05-23T12:57:59.639Z,1005.65
2019-05-23T12:58:59.565Z,1005.63
2019-05-23T13:00:09.053Z,1005.59